sensor_id;sensor_type;location;lat;lon;timestamp;pressure;altitude;pressure_sealevel;temperature;humidity
13476;BME280;6810;63.824;20.288;2023-03-20T00:00:17;100600.78;;;1.74;96.48
13476;BME280;6810;63.824;20.288;2023-03-20T00:03:04;100589.41;;;1.73;96.62
13476;BME280;6810;63.824;20.288;2023-03-20T00:05:51;100605.13;;;1.75;96.99
13476;BME280;6810;63.824;20.288;2023-03-20T00:08:38;100600.75;;;1.75;95.69
13476;BME280;6810;63.824;20.288;2023-03-20T00:11:34;100603.34;;;1.77;96.42
13476;BME280;6810;63.824;20.288;2023-03-20T00:14:22;100600.72;;;1.77;96.20
13476;BME280;6810;63.824;20.288;2023-03-20T00:17:18;100600.69;;;1.78;96.99
13476;BME280;6810;63.824;20.288;2023-03-20T00:20:13;100597.19;;;1.78;96.34
13476;BME280;6810;63.824;20.288;2023-03-20T00:23:00;100596.28;;;1.79;96.41
13476;BME280;6810;63.824;20.288;2023-03-20T00:25:47;100595.38;;;1.80;96.43
13476;BME280;6810;63.824;20.288;2023-03-20T00:28:40;100598.00;;;1.80;96.60
13476;BME280;6810;63.824;20.288;2023-03-20T00:31:33;100604.16;;;1.79;96.83
13476;BME280;6810;63.824;20.288;2023-03-20T00:34:23;100611.16;;;1.80;96.80
13476;BME280;6810;63.824;20.288;2023-03-20T00:37:12;100619.03;;;1.80;95.89
13476;BME280;6810;63.824;20.288;2023-03-20T00:39:59;100611.16;;;1.80;96.95
13476;BME280;6810;63.824;20.288;2023-03-20T00:42:49;100608.56;;;1.78;96.24
13476;BME280;6810;63.824;20.288;2023-03-20T00:45:37;100619.88;;;1.80;96.78
13476;BME280;6810;63.824;20.288;2023-03-20T00:48:24;100599.72;;;1.81;97.04
13476;BME280;6810;63.824;20.288;2023-03-20T00:51:11;100608.50;;;1.82;96.88
13476;BME280;6810;63.824;20.288;2023-03-20T00:53:58;100611.94;;;1.82;96.81
13476;BME280;6810;63.824;20.288;2023-03-20T00:59:43;100592.72;;;1.82;96.26
13476;BME280;6810;63.824;20.288;2023-03-20T01:02:33;100589.28;;;1.78;96.11
13476;BME280;6810;63.824;20.288;2023-03-20T01:05:23;100589.28;;;1.78;97.05
13476;BME280;6810;63.824;20.288;2023-03-20T01:08:22;100600.63;;;1.80;96.16
13476;BME280;6810;63.824;20.288;2023-03-20T01:11:11;100597.09;;;1.81;97.02
13476;BME280;6810;63.824;20.288;2023-03-20T01:13:58;100599.72;;;1.81;96.21
13476;BME280;6810;63.824;20.288;2023-03-20T01:16:46;100604.09;;;1.80;96.05
13476;BME280;6810;63.824;20.288;2023-03-20T01:19:32;100594.59;;;1.76;96.08
13476;BME280;6810;63.824;20.288;2023-03-20T01:22:20;100595.47;;;1.77;96.33
13476;BME280;6810;63.824;20.288;2023-03-20T01:25:07;100601.53;;;1.79;96.54
13476;BME280;6810;63.824;20.288;2023-03-20T01:27:54;100558.41;;;1.54;96.90
13476;BME280;6810;63.824;20.288;2023-03-20T01:30:42;100607.72;;;1.76;97.11
13476;BME280;6810;63.824;20.288;2023-03-20T01:33:30;100610.28;;;1.79;96.24
13476;BME280;6810;63.824;20.288;2023-03-20T01:36:20;100613.81;;;1.78;96.13
13476;BME280;6810;63.824;20.288;2023-03-20T01:39:09;100612.94;;;1.78;96.83
13476;BME280;6810;63.824;20.288;2023-03-20T01:41:57;100600.91;;;1.69;96.96
13476;BME280;6810;63.824;20.288;2023-03-20T01:44:44;100606.03;;;1.74;96.04
13476;BME280;6810;63.824;20.288;2023-03-20T01:47:31;100611.22;;;1.77;96.69
13476;BME280;6810;63.824;20.288;2023-03-20T01:50:24;100611.22;;;1.77;96.78
13476;BME280;6810;63.824;20.288;2023-03-20T01:53:20;100610.34;;;1.76;96.46
13476;BME280;6810;63.824;20.288;2023-03-20T01:56:11;100610.34;;;1.76;96.41
13476;BME280;6810;63.824;20.288;2023-03-20T01:59:04;100610.44;;;1.73;96.26
13476;BME280;6810;63.824;20.288;2023-03-20T02:01:32;100615.59;;;1.76;96.28
13476;BME280;6810;63.824;20.288;2023-03-20T02:04:02;100619.09;;;1.77;96.34
13476;BME280;6810;63.824;20.288;2023-03-20T02:06:44;100619.09;;;1.77;96.96
13476;BME280;6810;63.824;20.288;2023-03-20T02:09:19;100607.91;;;1.69;96.17
13476;BME280;6810;63.824;20.288;2023-03-20T02:11:48;100593.25;;;1.60;96.78
13476;BME280;6810;63.824;20.288;2023-03-20T02:14:18;100625.25;;;1.76;96.77
13476;BME280;6810;63.824;20.288;2023-03-20T02:16:57;100615.66;;;1.75;97.04
13476;BME280;6810;63.824;20.288;2023-03-20T02:30:42;100641.03;;;1.74;96.73
13476;BME280;6810;63.824;20.288;2023-03-20T02:42:10;100620.09;;;1.71;96.42
13476;BME280;6810;63.824;20.288;2023-03-20T02:47:29;100618.38;;;1.70;96.76
13476;BME280;6810;63.824;20.288;2023-03-20T02:55:44;100624.59;;;1.68;96.71
13476;BME280;6810;63.824;20.288;2023-03-20T02:58:25;100613.16;;;1.69;97.14
13476;BME280;6810;63.824;20.288;2023-03-20T03:00:56;100622.81;;;1.68;95.95
13476;BME280;6810;63.824;20.288;2023-03-20T03:03:59;100614.13;;;1.66;96.21
13476;BME280;6810;63.824;20.288;2023-03-20T03:06:29;100602.09;;;1.56;96.93
13476;BME280;6810;63.824;20.288;2023-03-20T03:09:14;100617.59;;;1.67;96.14
13476;BME280;6810;63.824;20.288;2023-03-20T03:11:48;100585.75;;;1.44;96.30
13476;BME280;6810;63.824;20.288;2023-03-20T03:14:38;100627.28;;;1.65;96.16
13476;BME280;6810;63.824;20.288;2023-03-20T03:17:12;100633.38;;;1.65;96.81
13476;BME280;6810;63.824;20.288;2023-03-20T03:19:45;100635.19;;;1.63;96.65
13476;BME280;6810;63.824;20.288;2023-03-20T03:22:15;100632.56;;;1.63;96.53
13476;BME280;6810;63.824;20.288;2023-03-20T03:24:45;100626.66;;;1.54;95.62
13476;BME280;6810;63.824;20.288;2023-03-20T03:27:23;100635.25;;;1.62;96.69
13476;BME280;6810;63.824;20.288;2023-03-20T03:30:16;100649.25;;;1.61;96.50
13476;BME280;6810;63.824;20.288;2023-03-20T03:32:50;100646.66;;;1.59;96.63
13476;BME280;6810;63.824;20.288;2023-03-20T03:35:21;100638.84;;;1.56;96.10
13476;BME280;6810;63.824;20.288;2023-03-20T03:38:01;100641.44;;;1.58;96.26
13476;BME280;6810;63.824;20.288;2023-03-20T03:43:15;100630.97;;;1.56;96.37
13476;BME280;6810;63.824;20.288;2023-03-20T03:46:00;100643.22;;;1.56;96.42
13476;BME280;6810;63.824;20.288;2023-03-20T03:48:35;100638.00;;;1.54;96.25
13476;BME280;6810;63.824;20.288;2023-03-20T03:51:08;100591.47;;;1.24;96.24
13476;BME280;6810;63.824;20.288;2023-03-20T03:53:53;100629.38;;;1.51;95.99
13476;BME280;6810;63.824;20.288;2023-03-20T03:56:23;100633.75;;;1.50;96.02
13476;BME280;6810;63.824;20.288;2023-03-20T03:58:54;100575.03;;;1.16;96.54
13476;BME280;6810;63.824;20.288;2023-03-20T04:01:25;100639.94;;;1.48;96.46
13476;BME280;6810;63.824;20.288;2023-03-20T04:03:56;100613.19;;;1.31;96.47
13476;BME280;6810;63.824;20.288;2023-03-20T04:06:27;100626.88;;;1.45;96.69
13476;BME280;6810;63.824;20.288;2023-03-20T04:08:54;100635.59;;;1.45;96.15
13476;BME280;6810;63.824;20.288;2023-03-20T04:11:23;100651.34;;;1.45;96.01
13476;BME280;6810;63.824;20.288;2023-03-20T04:13:51;100663.63;;;1.45;96.33
13476;BME280;6810;63.824;20.288;2023-03-20T04:16:21;100593.50;;;1.12;96.26
13476;BME280;6810;63.824;20.288;2023-03-20T04:18:49;100642.66;;;1.43;96.38
13476;BME280;6810;63.824;20.288;2023-03-20T04:21:16;100646.22;;;1.41;95.92
13476;BME280;6810;63.824;20.288;2023-03-20T04:23:44;100654.00;;;1.44;95.67
13476;BME280;6810;63.824;20.288;2023-03-20T04:26:13;100576.25;;;1.02;96.18
13476;BME280;6810;63.824;20.288;2023-03-20T04:28:40;100639.22;;;1.41;96.20
13476;BME280;6810;63.824;20.288;2023-03-20T04:31:19;100642.72;;;1.42;96.33
13476;BME280;6810;63.824;20.288;2023-03-20T04:34:02;100652.38;;;1.40;96.59
13476;BME280;6810;63.824;20.288;2023-03-20T04:36:35;100647.22;;;1.35;96.08
13476;BME280;6810;63.824;20.288;2023-03-20T04:39:05;100650.66;;;1.39;96.17
13476;BME280;6810;63.824;20.288;2023-03-20T04:41:32;100641.13;;;1.33;96.35
13476;BME280;6810;63.824;20.288;2023-03-20T04:43:59;100648.06;;;1.37;96.54
13476;BME280;6810;63.824;20.288;2023-03-20T04:46:27;100655.06;;;1.37;96.31
13476;BME280;6810;63.824;20.288;2023-03-20T04:48:54;100654.22;;;1.35;96.23
13476;BME280;6810;63.824;20.288;2023-03-20T04:51:25;100594.56;;;1.03;95.90
13476;BME280;6810;63.824;20.288;2023-03-20T04:53:52;100641.06;;;1.36;96.66
13476;BME280;6810;63.824;20.288;2023-03-20T04:56:19;100644.56;;;1.37;96.47
13476;BME280;6810;63.824;20.288;2023-03-20T04:58:48;100646.34;;;1.35;96.10
13476;BME280;6810;63.824;20.288;2023-03-20T05:01:17;100660.34;;;1.35;96.06
13476;BME280;6810;63.824;20.288;2023-03-20T05:03:45;100665.63;;;1.34;96.60
13476;BME280;6810;63.824;20.288;2023-03-20T05:06:12;100672.59;;;1.35;96.14
13476;BME280;6810;63.824;20.288;2023-03-20T05:08:41;100641.38;;;1.23;96.67
13476;BME280;6810;63.824;20.288;2023-03-20T05:11:09;100667.38;;;1.33;96.60
13476;BME280;6810;63.824;20.288;2023-03-20T05:13:55;100644.03;;;1.21;96.26
13476;BME280;6810;63.824;20.288;2023-03-20T05:16:40;100661.34;;;1.30;96.23
13476;BME280;6810;63.824;20.288;2023-03-20T05:19:16;100620.81;;;1.03;96.35
13476;BME280;6810;63.824;20.288;2023-03-20T05:22:10;100673.56;;;1.31;96.49
13476;BME280;6810;63.824;20.288;2023-03-20T05:24:39;100679.69;;;1.31;96.31
13476;BME280;6810;63.824;20.288;2023-03-20T05:27:25;100679.69;;;1.31;96.21
13476;BME280;6810;63.824;20.288;2023-03-20T05:30:15;100686.66;;;1.32;96.35
13476;BME280;6810;63.824;20.288;2023-03-20T05:33:15;100677.06;;;1.31;96.74
13476;BME280;6810;63.824;20.288;2023-03-20T05:36:06;100684.03;;;1.32;96.51
13476;BME280;6810;63.824;20.288;2023-03-20T05:38:53;100689.31;;;1.31;96.71
13476;BME280;6810;63.824;20.288;2023-03-20T05:41:39;100687.63;;;1.27;96.95
13476;BME280;6810;63.824;20.288;2023-03-20T05:44:25;100698.94;;;1.30;96.94
13476;BME280;6810;63.824;20.288;2023-03-20T05:47:21;100687.59;;;1.30;97.34
13476;BME280;6810;63.824;20.288;2023-03-20T05:50:03;100699.84;;;1.29;97.66
13476;BME280;6810;63.824;20.288;2023-03-20T05:52:49;100692.88;;;1.27;97.76
13476;BME280;6810;63.824;20.288;2023-03-20T05:55:34;100696.34;;;1.29;97.92
13476;BME280;6810;63.824;20.288;2023-03-20T05:58:13;100698.13;;;1.28;97.77
13476;BME280;6810;63.824;20.288;2023-03-20T06:00:58;100701.59;;;1.29;98.35
13476;BME280;6810;63.824;20.288;2023-03-20T06:03:46;100700.91;;;1.21;98.56
13476;BME280;6810;63.824;20.288;2023-03-20T06:06:22;100714.75;;;1.27;97.91
13476;BME280;6810;63.824;20.288;2023-03-20T06:08:50;100698.13;;;1.27;97.90
13476;BME280;6810;63.824;20.288;2023-03-20T06:11:17;100708.63;;;1.27;98.92
13476;BME280;6810;63.824;20.288;2023-03-20T06:13:44;100715.63;;;1.28;98.49
13476;BME280;6810;63.824;20.288;2023-03-20T06:16:11;100709.47;;;1.29;98.79
13476;BME280;6810;63.824;20.288;2023-03-20T06:18:38;100712.09;;;1.29;99.04
13476;BME280;6810;63.824;20.288;2023-03-20T06:21:07;100711.22;;;1.30;98.89
13476;BME280;6810;63.824;20.288;2023-03-20T06:23:35;100712.94;;;1.31;99.05
13476;BME280;6810;63.824;20.288;2023-03-20T06:26:03;100714.66;;;1.32;99.26
13476;BME280;6810;63.824;20.288;2023-03-20T06:28:42;100707.66;;;1.32;99.66
13476;BME280;6810;63.824;20.288;2023-03-20T06:31:09;100711.97;;;1.35;99.97
13476;BME280;6810;63.824;20.288;2023-03-20T06:33:36;100705.91;;;1.33;99.48
13476;BME280;6810;63.824;20.288;2023-03-20T06:36:04;100707.56;;;1.37;99.98
13476;BME280;6810;63.824;20.288;2023-03-20T06:38:32;100704.94;;;1.37;100.00
13476;BME280;6810;63.824;20.288;2023-03-20T06:41:05;100706.66;;;1.38;99.64
13476;BME280;6810;63.824;20.288;2023-03-20T06:43:33;100711.00;;;1.40;100.00
13476;BME280;6810;63.824;20.288;2023-03-20T06:46:00;100683.25;;;1.27;99.79
13476;BME280;6810;63.824;20.288;2023-03-20T06:48:29;100710.94;;;1.43;100.00
13476;BME280;6810;63.824;20.288;2023-03-20T06:50:57;100702.25;;;1.40;100.00
13476;BME280;6810;63.824;20.288;2023-03-20T06:53:34;100717.00;;;1.45;100.00
13476;BME280;6810;63.824;20.288;2023-03-20T06:56:13;100715.28;;;1.44;100.00
13476;BME280;6810;63.824;20.288;2023-03-20T06:58:40;100722.19;;;1.48;100.00
13476;BME280;6810;63.824;20.288;2023-03-20T07:01:13;100716.91;;;1.50;100.00
13476;BME280;6810;63.824;20.288;2023-03-20T07:03:41;100722.97;;;1.53;100.00
13476;BME280;6810;63.824;20.288;2023-03-20T07:06:09;100727.25;;;1.56;100.00
13476;BME280;6810;63.824;20.288;2023-03-20T07:08:38;100728.09;;;1.58;100.00
13476;BME280;6810;63.824;20.288;2023-03-20T07:11:06;100717.66;;;1.55;100.00
13476;BME280;6810;63.824;20.288;2023-03-20T07:13:33;100720.19;;;1.59;100.00
13476;BME280;6810;63.824;20.288;2023-03-20T07:16:10;100728.81;;;1.66;100.00
13476;BME280;6810;63.824;20.288;2023-03-20T07:18:39;100734.00;;;1.69;100.00
13476;BME280;6810;63.824;20.288;2023-03-20T07:21:07;100706.22;;;1.57;100.00
13476;BME280;6810;63.824;20.288;2023-03-20T07:23:35;100733.03;;;1.73;100.00
13476;BME280;6810;63.824;20.288;2023-03-20T07:26:02;100742.59;;;1.77;100.00
13476;BME280;6810;63.824;20.288;2023-03-20T07:28:30;100734.66;;;1.78;100.00
13476;BME280;6810;63.824;20.288;2023-03-20T07:31:22;100718.09;;;1.75;100.00
13476;BME280;6810;63.824;20.288;2023-03-20T07:33:58;100676.53;;;1.55;100.00
13476;BME280;6810;63.824;20.288;2023-03-20T07:36:25;100706.72;;;1.74;100.00
13476;BME280;6810;63.824;20.288;2023-03-20T07:38:52;100727.38;;;1.90;100.00
13476;BME280;6810;63.824;20.288;2023-03-20T07:41:19;100718.72;;;1.86;100.00
13476;BME280;6810;63.824;20.288;2023-03-20T07:43:57;100723.91;;;1.89;100.00
13476;BME280;6810;63.824;20.288;2023-03-20T07:46:44;100714.34;;;1.85;100.00
13476;BME280;6810;63.824;20.288;2023-03-20T07:49:16;100738.63;;;1.96;100.00
13476;BME280;6810;63.824;20.288;2023-03-20T07:51:49;100731.56;;;1.98;100.00
13476;BME280;6810;63.824;20.288;2023-03-20T07:54:17;100732.41;;;2.00;100.00
13476;BME280;6810;63.824;20.288;2023-03-20T07:56:44;100718.66;;;1.89;100.00
13476;BME280;6810;63.824;20.288;2023-03-20T07:59:11;100732.34;;;2.03;100.00
13476;BME280;6810;63.824;20.288;2023-03-20T08:01:39;100720.22;;;1.96;100.00
13476;BME280;6810;63.824;20.288;2023-03-20T08:04:06;100732.34;;;2.03;100.00
13476;BME280;6810;63.824;20.288;2023-03-20T08:06:34;100735.81;;;2.04;100.00
13476;BME280;6810;63.824;20.288;2023-03-20T08:09:02;100750.56;;;2.11;100.00
13476;BME280;6810;63.824;20.288;2023-03-20T08:11:29;100738.25;;;2.11;100.00
13476;BME280;6810;63.824;20.288;2023-03-20T08:13:59;100737.31;;;2.15;100.00
13476;BME280;6810;63.824;20.288;2023-03-20T08:16:26;100741.59;;;2.18;100.00
13476;BME280;6810;63.824;20.288;2023-03-20T08:18:53;100744.16;;;2.21;100.00
13476;BME280;6810;63.824;20.288;2023-03-20T08:21:28;100748.47;;;2.23;100.00
13476;BME280;6810;63.824;20.288;2023-03-20T08:23:55;100757.19;;;2.25;100.00
13476;BME280;6810;63.824;20.288;2023-03-20T08:26:23;100756.28;;;2.28;100.00
13476;BME280;6810;63.824;20.288;2023-03-20T08:28:51;100755.28;;;2.32;100.00
13476;BME280;6810;63.824;20.288;2023-03-20T08:31:18;100756.97;;;2.34;100.00
13476;BME280;6810;63.824;20.288;2023-03-20T08:33:46;100750.78;;;2.37;100.00
13476;BME280;6810;63.824;20.288;2023-03-20T08:36:14;100722.34;;;2.17;100.00
13476;BME280;6810;63.824;20.288;2023-03-20T08:38:42;100738.69;;;2.30;100.00
13476;BME280;6810;63.824;20.288;2023-03-20T08:41:09;100724.78;;;2.26;100.00
13476;BME280;6810;63.824;20.288;2023-03-20T08:43:36;100735.94;;;2.34;100.00
13476;BME280;6810;63.824;20.288;2023-03-20T08:46:04;100767.88;;;2.54;100.00
13476;BME280;6810;63.824;20.288;2023-03-20T08:48:31;100774.84;;;2.57;100.00
13476;BME280;6810;63.824;20.288;2023-03-20T08:50:58;100758.38;;;2.49;100.00
13476;BME280;6810;63.824;20.288;2023-03-20T08:53:25;100779.94;;;2.63;100.00
13476;BME280;6810;63.824;20.288;2023-03-20T08:55:53;100781.59;;;2.67;100.00
13476;BME280;6810;63.824;20.288;2023-03-20T08:58:20;100772.06;;;2.63;100.00
13476;BME280;6810;63.824;20.288;2023-03-20T09:00:47;100798.09;;;2.73;100.00
13476;BME280;6810;63.824;20.288;2023-03-20T09:03:17;100790.97;;;2.77;100.00
13476;BME280;6810;63.824;20.288;2023-03-20T09:05:46;100792.66;;;2.79;100.00
13476;BME280;6810;63.824;20.288;2023-03-20T09:08:14;100790.75;;;2.84;100.00
13476;BME280;6810;63.824;20.288;2023-03-20T09:10:40;100795.94;;;2.87;100.00
13476;BME280;6810;63.824;20.288;2023-03-20T09:13:08;100802.88;;;2.91;100.00
13476;BME280;6810;63.824;20.288;2023-03-20T09:15:52;100801.03;;;2.95;100.00
13476;BME280;6810;63.824;20.288;2023-03-20T09:18:19;100789.56;;;2.97;100.00
13476;BME280;6810;63.824;20.288;2023-03-20T09:20:47;100792.97;;;3.01;100.00
13476;BME280;6810;63.824;20.288;2023-03-20T09:23:15;100792.91;;;3.04;100.00
13476;BME280;6810;63.824;20.288;2023-03-20T09:25:42;100782.31;;;3.05;100.00
13476;BME280;6810;63.824;20.288;2023-03-20T09:28:09;100784.78;;;3.11;100.00
13476;BME280;6810;63.824;20.288;2023-03-20T09:30:36;100793.41;;;3.16;100.00
13476;BME280;6810;63.824;20.288;2023-03-20T09:33:04;100790.69;;;3.21;100.00
13476;BME280;6810;63.824;20.288;2023-03-20T09:35:31;100791.41;;;3.26;100.00
13476;BME280;6810;63.824;20.288;2023-03-20T09:37:58;100788.72;;;3.27;100.00
13476;BME280;6810;63.824;20.288;2023-03-20T09:49:04;100791.72;;;3.46;100.00
13476;BME280;6810;63.824;20.288;2023-03-20T09:51:35;100808.22;;;3.52;100.00
13476;BME280;6810;63.824;20.288;2023-03-20T09:56:39;100803.59;;;3.61;100.00
13476;BME280;6810;63.824;20.288;2023-03-20T09:59:06;100806.16;;;3.64;100.00
13476;BME280;6810;63.824;20.288;2023-03-20T10:01:44;100799.88;;;3.68;100.00
13476;BME280;6810;63.824;20.288;2023-03-20T10:04:14;100798.81;;;3.73;100.00
13476;BME280;6810;63.824;20.288;2023-03-20T10:06:41;100740.78;;;3.45;100.00
13476;BME280;6810;63.824;20.288;2023-03-20T10:09:17;100778.75;;;3.69;100.00
13476;BME280;6810;63.824;20.288;2023-03-20T10:18:04;100803.09;;;4.06;100.00
13476;BME280;6810;63.824;20.288;2023-03-20T10:20:43;100809.03;;;4.13;100.00
13476;BME280;6810;63.824;20.288;2023-03-20T10:23:41;100804.44;;;4.19;100.00
13476;BME280;6810;63.824;20.288;2023-03-20T10:26:15;100799.16;;;4.19;100.00
13476;BME280;6810;63.824;20.288;2023-03-20T10:28:45;100805.94;;;4.28;100.00
13476;BME280;6810;63.824;20.288;2023-03-20T10:42:19;100780.78;;;4.44;100.00
13476;BME280;6810;63.824;20.288;2023-03-20T10:47:29;100795.13;;;4.63;100.00
13476;BME280;6810;63.824;20.288;2023-03-20T10:50:26;100793.13;;;4.69;100.00
13476;BME280;6810;63.824;20.288;2023-03-20T10:52:51;100779.88;;;4.71;100.00
13476;BME280;6810;63.824;20.288;2023-03-20T10:55:22;100788.19;;;4.85;100.00
13476;BME280;6810;63.824;20.288;2023-03-20T10:57:58;100797.66;;;4.92;100.00
13476;BME280;6810;63.824;20.288;2023-03-20T11:00:26;100795.63;;;4.98;100.00
13476;BME280;6810;63.824;20.288;2023-03-20T11:02:54;100797.22;;;5.04;100.00
13476;BME280;6810;63.824;20.288;2023-03-20T11:05:33;100788.31;;;5.06;100.00
13476;BME280;6810;63.824;20.288;2023-03-20T11:08:21;100789.69;;;5.18;100.00
13476;BME280;6810;63.824;20.288;2023-03-20T11:10:57;100787.66;;;5.24;100.00
13476;BME280;6810;63.824;20.288;2023-03-20T11:13:34;100791.84;;;5.31;100.00
13476;BME280;6810;63.824;20.288;2023-03-20T11:16:25;100782.81;;;5.37;100.00
13476;BME280;6810;63.824;20.288;2023-03-20T11:19:04;100788.63;;;5.47;100.00
13476;BME280;6810;63.824;20.288;2023-03-20T11:21:32;100760.69;;;5.39;100.00
13476;BME280;6810;63.824;20.288;2023-03-20T11:24:02;100788.94;;;5.62;100.00
13476;BME280;6810;63.824;20.288;2023-03-20T11:26:36;100780.66;;;5.71;99.79
13476;BME280;6810;63.824;20.288;2023-03-20T11:29:23;100773.25;;;5.81;100.00
13476;BME280;6810;63.824;20.288;2023-03-20T11:32:04;100765.66;;;5.95;100.00
13476;BME280;6810;63.824;20.288;2023-03-20T11:34:35;100771.41;;;6.06;100.00
13476;BME280;6810;63.824;20.288;2023-03-20T11:37:06;100737.19;;;6.01;100.00
13476;BME280;6810;63.824;20.288;2023-03-20T11:39:55;100751.97;;;6.28;100.00
13476;BME280;6810;63.824;20.288;2023-03-20T11:42:25;100762.81;;;6.44;100.00
13476;BME280;6810;63.824;20.288;2023-03-20T11:44:57;100757.88;;;6.56;99.92
13476;BME280;6810;63.824;20.288;2023-03-20T11:47:26;100762.72;;;6.67;100.00
13476;BME280;6810;63.824;20.288;2023-03-20T11:49:57;100745.00;;;6.69;99.60
13476;BME280;6810;63.824;20.288;2023-03-20T11:52:28;100753.22;;;6.83;99.59
13476;BME280;6810;63.824;20.288;2023-03-20T11:54:59;100751.16;;;6.89;99.54
13476;BME280;6810;63.824;20.288;2023-03-20T11:57:34;100749.91;;;6.98;99.27
13476;BME280;6810;63.824;20.288;2023-03-20T12:00:15;100749.44;;;7.08;99.58
13476;BME280;6810;63.824;20.288;2023-03-20T12:02:42;100760.50;;;7.18;99.56
13476;BME280;6810;63.824;20.288;2023-03-20T12:05:39;100749.50;;;7.27;99.46
13476;BME280;6810;63.824;20.288;2023-03-20T12:10:42;100743.31;;;7.47;99.24
13476;BME280;6810;63.824;20.288;2023-03-20T12:13:19;100749.91;;;7.57;99.38
13476;BME280;6810;63.824;20.288;2023-03-20T12:15:54;100738.16;;;7.62;98.86
13476;BME280;6810;63.824;20.288;2023-03-20T12:24:01;100732.94;;;7.79;97.74
13476;BME280;6810;63.824;20.288;2023-03-20T12:26:34;100737.03;;;7.86;97.71
13476;BME280;6810;63.824;20.288;2023-03-20T12:29:07;100727.91;;;7.92;97.15
13476;BME280;6810;63.824;20.288;2023-03-20T12:34:20;100731.56;;;8.08;97.08
13476;BME280;6810;63.824;20.288;2023-03-20T12:36:49;100723.16;;;8.17;97.25
13476;BME280;6810;63.824;20.288;2023-03-20T12:39:27;100719.28;;;8.24;97.51
13476;BME280;6810;63.824;20.288;2023-03-20T12:42:07;100724.03;;;8.36;97.16
13476;BME280;6810;63.824;20.288;2023-03-20T12:56:05;100716.56;;;8.78;96.62
13476;BME280;6810;63.824;20.288;2023-03-20T12:58:44;100719.84;;;8.83;95.80
13476;BME280;6810;63.824;20.288;2023-03-20T13:01:17;100719.53;;;8.89;95.57
13476;BME280;6810;63.824;20.288;2023-03-20T13:07:02;100699.81;;;8.93;95.40
13476;BME280;6810;63.824;20.288;2023-03-20T13:13:15;100714.47;;;9.17;96.15
13476;BME280;6810;63.824;20.288;2023-03-20T13:16:14;100715.09;;;9.22;94.83
13476;BME280;6810;63.824;20.288;2023-03-20T13:31:00;100711.78;;;9.34;92.39
13476;BME280;6810;63.824;20.288;2023-03-20T13:37:01;100714.13;;;9.40;92.19
13476;BME280;6810;63.824;20.288;2023-03-20T13:46:08;100720.41;;;9.39;91.34
13476;BME280;6810;63.824;20.288;2023-03-20T13:49:12;100708.03;;;9.38;90.19
13476;BME280;6810;63.824;20.288;2023-03-20T13:52:09;100718.59;;;9.40;90.28
13476;BME280;6810;63.824;20.288;2023-03-20T13:55:23;100711.72;;;9.36;89.58
13476;BME280;6810;63.824;20.288;2023-03-20T14:01:17;100703.69;;;9.20;89.87
13476;BME280;6810;63.824;20.288;2023-03-20T14:03:50;100708.25;;;9.18;87.82
13476;BME280;6810;63.824;20.288;2023-03-20T14:09:36;100716.69;;;9.09;87.97
13476;BME280;6810;63.824;20.288;2023-03-20T14:12:25;100714.28;;;9.05;87.80
13476;BME280;6810;63.824;20.288;2023-03-20T14:15:13;100716.16;;;9.03;87.94
13476;BME280;6810;63.824;20.288;2023-03-20T14:18:13;100679.34;;;8.78;87.72
13476;BME280;6810;63.824;20.288;2023-03-20T14:21:07;100708.75;;;8.92;87.49
13476;BME280;6810;63.824;20.288;2023-03-20T14:23:59;100708.91;;;8.89;87.59
13476;BME280;6810;63.824;20.288;2023-03-20T14:26:50;100708.25;;;8.84;87.62
13476;BME280;6810;63.824;20.288;2023-03-20T14:32:30;100711.47;;;8.73;85.88
13476;BME280;6810;63.824;20.288;2023-03-20T14:35:26;100713.56;;;8.67;86.84
13476;BME280;6810;63.824;20.288;2023-03-20T14:50:33;100706.63;;;8.47;85.61
13476;BME280;6810;63.824;20.288;2023-03-20T14:53:25;100710.38;;;8.43;85.57
13476;BME280;6810;63.824;20.288;2023-03-20T14:56:13;100710.53;;;8.40;85.47
13476;BME280;6810;63.824;20.288;2023-03-20T14:59:09;100708.84;;;8.38;85.62
13476;BME280;6810;63.824;20.288;2023-03-20T15:02:00;100708.38;;;8.30;85.28
13476;BME280;6810;63.824;20.288;2023-03-20T15:04:48;100718.16;;;8.29;85.12
13476;BME280;6810;63.824;20.288;2023-03-20T15:07:37;100706.88;;;8.24;84.94
13476;BME280;6810;63.824;20.288;2023-03-20T15:10:25;100682.28;;;8.02;84.97
13476;BME280;6810;63.824;20.288;2023-03-20T15:13:12;100715.13;;;8.18;84.91
13476;BME280;6810;63.824;20.288;2023-03-20T15:16:09;100706.66;;;8.10;84.61
13476;BME280;6810;63.824;20.288;2023-03-20T15:18:57;100719.09;;;8.10;84.60
13476;BME280;6810;63.824;20.288;2023-03-20T15:21:45;100720.16;;;8.06;84.17
13476;BME280;6810;63.824;20.288;2023-03-20T15:24:32;100722.13;;;8.02;84.21
13476;BME280;6810;63.824;20.288;2023-03-20T15:27:20;100717.00;;;7.98;84.30
13476;BME280;6810;63.824;20.288;2023-03-20T15:30:09;100735.63;;;7.96;84.47
13476;BME280;6810;63.824;20.288;2023-03-20T15:32:59;100729.72;;;7.91;84.69
13476;BME280;6810;63.824;20.288;2023-03-20T15:35:46;100693.97;;;7.61;84.74
13476;BME280;6810;63.824;20.288;2023-03-20T15:38:34;100732.94;;;7.79;84.52
13476;BME280;6810;63.824;20.288;2023-03-20T15:49:58;100717.59;;;7.49;85.35
13476;BME280;6810;63.824;20.288;2023-03-20T15:52:46;100746.13;;;7.62;85.34
13476;BME280;6810;63.824;20.288;2023-03-20T15:55:33;100741.16;;;7.55;85.49
13476;BME280;6810;63.824;20.288;2023-03-20T15:58:33;100740.22;;;7.56;85.88
13476;BME280;6810;63.824;20.288;2023-03-20T16:01:23;100752.69;;;7.54;85.96
13476;BME280;6810;63.824;20.288;2023-03-20T16:04:13;100752.06;;;7.49;85.94
13476;BME280;6810;63.824;20.288;2023-03-20T16:07:01;100752.19;;;7.46;86.09
13476;BME280;6810;63.824;20.288;2023-03-20T16:09:48;100752.41;;;7.41;86.16
13476;BME280;6810;63.824;20.288;2023-03-20T16:12:36;100740.81;;;7.24;85.92
13476;BME280;6810;63.824;20.288;2023-03-20T16:15:25;100752.03;;;7.30;85.82
13476;BME280;6810;63.824;20.288;2023-03-20T16:18:16;100751.34;;;7.25;85.62